Time;durP1;ratioP1;P1;durP2;ratioP2;P2;SDS_P1;SDS_P2;PMS_P1;PMS_P2;Temp;Humidity;BMP_temperature;BMP_pressure;BME280_temperature;BME280_humidity;BME280_pressure;Samples;Min_cycle;Max_cycle;Signal;HPM_P1;HPM_P2
2024/02/03 00:01:06;;;;;;;;;;;17.40;44.20;;;;;;1569664;74;665;-71
2024/02/03 00:03:08;;;;;;;;;;;17.50;44.30;;;;;;1574377;74;1100;-71
2024/02/03 00:05:11;;;;;;;;;;;17.40;44.20;;;;;;1577735;74;781;-71
2024/02/03 00:07:13;;;;;;;;;;;17.50;44.30;;;;;;1571216;74;1923;-71
2024/02/03 00:09:14;;;;;;;;;;;17.40;44.20;;;;;;1581808;74;675;-71
2024/02/03 00:11:16;;;;;;;;;;;17.50;44.30;;;;;;1566391;74;662;-71
2024/02/03 00:13:18;;;;;;;;;;;17.50;44.20;;;;;;1563777;74;1163;-71
2024/02/03 00:15:21;;;;;;;;;;;17.50;44.30;;;;;;1578231;74;693;-70
2024/02/03 00:17:23;;;;;;;;;;;17.50;44.40;;;;;;1570597;74;672;-71
2024/02/03 00:19:25;;;;;;;;;;;17.50;44.30;;;;;;1569533;74;685;-71
2024/02/03 00:21:27;;;;;;;;;;;17.50;44.30;;;;;;1571809;74;693;-71
2024/02/03 00:23:29;;;;;;;;;;;17.50;44.30;;;;;;1572090;74;1153;-70
2024/02/03 00:25:31;;;;;;;;;;;17.50;44.30;;;;;;1575005;74;700;-71
2024/02/03 00:27:33;;;;;;;;;;;17.50;44.30;;;;;;1571007;74;1931;-70
2024/02/03 00:29:35;;;;;;;;;;;17.50;44.30;;;;;;1572063;74;713;-71
2024/02/03 00:31:37;;;;;;;;;;;17.40;44.20;;;;;;1572086;74;597;-72
2024/02/03 00:33:39;;;;;;;;;;;17.50;44.30;;;;;;1568146;74;1187;-71
2024/02/03 00:35:40;;;;;;;;;;;17.40;44.20;;;;;;1569469;74;658;-70
2024/02/03 00:37:42;;;;;;;;;;;17.40;44.20;;;;;;1563586;74;804;-70
2024/02/03 00:39:44;;;;;;;;;;;17.40;44.20;;;;;;1575488;74;772;-71
2024/02/03 00:41:46;;;;;;;;;;;17.50;44.40;;;;;;1567013;74;1192;-71
2024/02/03 00:43:48;;;;;;;;;;;17.50;44.20;;;;;;1565420;74;601;-71
2024/02/03 00:45:50;;;;;;;;;;;17.40;44.20;;;;;;1573291;74;651;-69
2024/02/03 00:47:52;;;;;;;;;;;17.40;44.20;;;;;;1573024;74;1941;-71
2024/02/03 00:49:54;;;;;;;;;;;17.40;44.20;;;;;;1563341;74;662;-70
2024/02/03 00:51:55;;;;;;;;;;;17.50;44.20;;;;;;1568463;74;1234;-68
2024/02/03 00:53:57;;;;;;;;;;;17.50;44.30;;;;;;1573715;74;762;-69
2024/02/03 00:56:00;;;;;;;;;;;17.40;44.20;;;;;;1561592;74;719;-70
2024/02/03 00:58:02;;;;;;;;;;;17.40;44.20;;;;;;1572491;74;597;-71
2024/02/03 01:00:06;;;;;;;;;;;17.40;44.20;;;;;;1567643;74;752;-70
2024/02/03 01:02:08;;;;;;;;;;;17.40;44.20;;;;;;1568265;74;1160;-70
2024/02/03 01:04:10;;;;;;;;;;;17.50;44.20;;;;;;1572185;74;676;-69
2024/02/03 01:06:12;;;;;;;;;;;17.50;44.30;;;;;;1572011;74;704;-70
2024/02/03 01:08:14;;;;;;;;;;;17.50;44.20;;;;;;1567995;74;1926;-70
2024/02/03 01:10:15;;;;;;;;;;;17.40;44.10;;;;;;1571992;74;811;-71
2024/02/03 01:12:17;;;;;;;;;;;17.50;44.20;;;;;;1568397;74;1100;-68
2024/02/03 01:14:19;;;;;;;;;;;17.50;44.20;;;;;;1565751;74;757;-70
2024/02/03 01:16:21;;;;;;;;;;;17.40;44.10;;;;;;1574288;74;774;-71
2024/02/03 01:18:23;;;;;;;;;;;17.40;44.10;;;;;;1569463;74;754;-70
2024/02/03 01:20:25;;;;;;;;;;;17.40;44.10;;;;;;1566903;74;698;-70
2024/02/03 01:22:27;;;;;;;;;;;17.50;44.20;;;;;;1578838;74;1198;-71
2024/02/03 01:24:29;;;;;;;;;;;17.50;44.20;;;;;;1576429;74;674;-71
2024/02/03 01:26:31;;;;;;;;;;;17.50;44.10;;;;;;1574053;74;761;-71
2024/02/03 01:28:33;;;;;;;;;;;17.50;44.20;;;;;;1570371;74;1930;-70
2024/02/03 01:30:35;;;;;;;;;;;17.40;44.10;;;;;;1573263;74;605;-71
2024/02/03 01:32:37;;;;;;;;;;;17.50;44.20;;;;;;1576415;74;1171;-68
2024/02/03 01:34:38;;;;;;;;;;;17.50;44.10;;;;;;1571543;74;761;-71
2024/02/03 01:36:40;;;;;;;;;;;17.40;43.90;;;;;;1574389;74;719;-71
2024/02/03 01:38:48;;;;;;;;;;;17.50;44.10;;;;;;1571836;74;706;-71
2024/02/03 01:40:46;;;;;;;;;;;17.40;43.90;;;;;;1562522;74;990;-71
2024/02/03 01:42:47;;;;;;;;;;;17.40;44.00;;;;;;1567084;74;1084;-71
2024/02/03 01:44:50;;;;;;;;;;;17.50;44.10;;;;;;1573957;74;608;-71
2024/02/03 01:46:52;;;;;;;;;;;17.50;44.10;;;;;;1568321;74;619;-71
2024/02/03 01:48:54;;;;;;;;;;;17.40;43.90;;;;;;1571569;74;1981;-71
2024/02/03 01:50:56;;;;;;;;;;;17.50;44.00;;;;;;1562732;74;813;-69
2024/02/03 01:52:58;;;;;;;;;;;17.40;43.90;;;;;;1567452;74;1161;-69
2024/02/03 01:55:00;;;;;;;;;;;17.50;44.10;;;;;;1571405;74;882;-69
2024/02/03 01:57:02;;;;;;;;;;;17.40;43.90;;;;;;1567556;74;711;-71
2024/02/03 01:59:04;;;;;;;;;;;17.50;44.00;;;;;;1574381;74;850;-69
2024/02/03 02:01:06;;;;;;;;;;;17.40;43.90;;;;;;1568584;74;677;-71
2024/02/03 02:03:07;;;;;;;;;;;17.40;43.90;;;;;;1581670;74;1120;-71
2024/02/03 02:05:09;;;;;;;;;;;17.40;43.90;;;;;;1576589;74;792;-70
2024/02/03 02:07:11;;;;;;;;;;;17.40;43.90;;;;;;1574365;74;1439;-72
2024/02/03 02:09:20;;;;;;;;;;;17.40;43.90;;;;;;1577969;74;1930;-71
2024/02/03 02:11:24;;;;;;;;;;;17.40;43.90;;;;;;1573163;74;711;-71
2024/02/03 02:13:26;;;;;;;;;;;17.40;43.80;;;;;;1560313;74;2114;-70
2024/02/03 02:15:27;;;;;;;;;;;17.40;43.90;;;;;;1575740;74;638;-70
2024/02/03 02:17:29;;;;;;;;;;;17.90;44.20;;;;;;1564146;74;723;-71
2024/02/03 02:19:31;;;;;;;;;;;17.40;43.90;;;;;;1572335;74;640;-71
2024/02/03 02:21:33;;;;;;;;;;;17.40;43.80;;;;;;1573496;74;718;-70
2024/02/03 02:23:35;;;;;;;;;;;17.40;43.80;;;;;;1571157;74;1132;-70
2024/02/03 02:25:37;;;;;;;;;;;17.50;43.90;;;;;;1575797;74;797;-70
2024/02/03 02:27:39;;;;;;;;;;;17.50;43.90;;;;;;1570242;74;761;-70
2024/02/03 02:29:41;;;;;;;;;;;17.40;43.80;;;;;;1565981;74;1934;-71
2024/02/03 02:31:43;;;;;;;;;;;17.40;43.80;;;;;;1534448;75;1231;-70
2024/02/03 02:33:45;;;;;;;;;;;17.50;43.90;;;;;;1568124;74;724;-71
2024/02/03 02:35:50;;;;;;;;;;;17.40;43.70;;;;;;1574733;74;731;-70
2024/02/03 02:37:51;;;;;;;;;;;17.40;43.80;;;;;;1572058;74;1553;-71
2024/02/03 02:39:53;;;;;;;;;;;17.40;43.80;;;;;;1568390;74;682;-70
2024/02/03 02:41:55;;;;;;;;;;;17.40;43.80;;;;;;1565560;74;1089;-70
2024/02/03 02:43:57;;;;;;;;;;;17.40;43.70;;;;;;1563156;74;640;-71
2024/02/03 02:45:59;;;;;;;;;;;17.40;43.70;;;;;;1573115;74;667;-71
2024/02/03 02:48:01;;;;;;;;;;;17.40;43.80;;;;;;1571857;74;725;-71
2024/02/03 02:50:03;;;;;;;;;;;17.40;43.70;;;;;;1567096;74;1945;-69
2024/02/03 02:52:05;;;;;;;;;;;17.40;43.70;;;;;;1573907;74;1139;-71
2024/02/03 02:54:07;;;;;;;;;;;17.50;43.90;;;;;;1569589;74;714;-70
2024/02/03 02:56:09;;;;;;;;;;;17.40;43.70;;;;;;1569034;74;704;-69
2024/02/03 02:58:11;;;;;;;;;;;17.40;43.80;;;;;;1573958;74;593;-69
2024/02/03 03:00:13;;;;;;;;;;;17.40;43.80;;;;;;1563233;74;745;-70
2024/02/03 03:02:15;;;;;;;;;;;17.40;43.70;;;;;;1571254;74;1128;-70
2024/02/03 03:04:17;;;;;;;;;;;17.40;43.70;;;;;;1573289;74;661;-71
2024/02/03 03:06:19;;;;;;;;;;;17.40;43.70;;;;;;1572594;74;726;-70
2024/02/03 03:08:21;;;;;;;;;;;17.40;43.80;;;;;;1569889;74;1924;-71
2024/02/03 03:10:23;;;;;;;;;;;17.40;43.80;;;;;;1571345;74;767;-71
2024/02/03 03:12:25;;;;;;;;;;;17.40;43.70;;;;;;1566746;74;1149;-71
2024/02/03 03:14:26;;;;;;;;;;;17.40;43.70;;;;;;1573724;74;718;-71
2024/02/03 03:16:28;;;;;;;;;;;17.40;43.70;;;;;;1570202;74;726;-71
2024/02/03 03:18:30;;;;;;;;;;;17.40;43.70;;;;;;1573178;74;673;-71
2024/02/03 03:20:32;;;;;;;;;;;17.40;43.70;;;;;;1572212;74;734;-69
2024/02/03 03:22:34;;;;;;;;;;;17.40;43.60;;;;;;1572129;74;1136;-71
2024/02/03 03:24:36;;;;;;;;;;;17.40;43.70;;;;;;1569749;74;707;-70
2024/02/03 03:26:43;;;;;;;;;;;17.40;43.70;;;;;;1568802;74;654;-71
2024/02/03 03:28:45;;;;;;;;;;;17.40;43.70;;;;;;1572134;74;1941;-69
2024/02/03 03:30:47;;;;;;;;;;;17.50;43.90;;;;;;1569654;74;705;-71
2024/02/03 03:32:49;;;;;;;;;;;17.50;43.90;;;;;;1572441;74;1208;-71
2024/02/03 03:34:51;;;;;;;;;;;17.40;43.70;;;;;;1573605;74;685;-70
2024/02/03 03:36:53;;;;;;;;;;;17.50;43.90;;;;;;1574289;74;739;-70
2024/02/03 03:38:55;;;;;;;;;;;17.40;43.80;;;;;;1568238;74;749;-71
2024/02/03 03:40:57;;;;;;;;;;;17.50;44.00;;;;;;1567604;74;656;-71
2024/02/03 03:42:59;;;;;;;;;;;17.50;43.90;;;;;;1564599;74;1140;-70
2024/02/03 03:45:00;;;;;;;;;;;17.40;43.80;;;;;;1572002;74;667;-70
2024/02/03 03:47:02;;;;;;;;;;;17.40;43.70;;;;;;1574779;74;658;-70
2024/02/03 03:49:04;;;;;;;;;;;17.40;43.80;;;;;;1571540;74;1921;-69
2024/02/03 03:51:06;;;;;;;;;;;17.40;43.80;;;;;;1572339;74;692;-71
2024/02/03 03:53:08;;;;;;;;;;;17.50;44.00;;;;;;1565536;74;1163;-70
2024/02/03 03:55:10;;;;;;;;;;;17.40;43.80;;;;;;1572242;74;710;-71
2024/02/03 03:57:12;;;;;;;;;;;17.40;43.80;;;;;;1569884;74;722;-69
2024/02/03 03:59:14;;;;;;;;;;;17.40;43.80;;;;;;1575332;74;651;-71
2024/02/03 04:01:15;;;;;;;;;;;17.40;43.90;;;;;;1567446;74;717;-71
2024/02/03 04:03:17;;;;;;;;;;;17.40;43.90;;;;;;1575804;74;1127;-70
2024/02/03 04:05:19;;;;;;;;;;;17.40;43.80;;;;;;1573318;74;735;-70
2024/02/03 04:07:21;;;;;;;;;;;17.40;43.80;;;;;;1566040;74;1565;-70
2024/02/03 04:09:23;;;;;;;;;;;17.40;43.90;;;;;;1566731;74;1932;-71
2024/02/03 04:11:25;;;;;;;;;;;17.40;43.70;;;;;;1563592;74;749;-71
2024/02/03 04:13:27;;;;;;;;;;;17.40;43.80;;;;;;1564465;74;1135;-71
2024/02/03 04:15:29;;;;;;;;;;;17.40;43.80;;;;;;1568234;74;725;-69
2024/02/03 04:17:31;;;;;;;;;;;17.40;43.80;;;;;;1566002;74;719;-71
2024/02/03 04:19:32;;;;;;;;;;;17.40;43.80;;;;;;1568629;74;762;-69
2024/02/03 04:21:34;;;;;;;;;;;17.40;43.90;;;;;;1571447;74;724;-71
2024/02/03 04:23:36;;;;;;;;;;;17.40;43.80;;;;;;1565197;74;1093;-68
2024/02/03 04:25:38;;;;;;;;;;;17.40;43.80;;;;;;1572330;74;780;-71
2024/02/03 04:27:40;;;;;;;;;;;17.50;43.90;;;;;;1566242;74;788;-69
2024/02/03 04:29:42;;;;;;;;;;;17.50;43.90;;;;;;1573141;74;1963;-70
2024/02/03 04:31:44;;;;;;;;;;;17.50;43.90;;;;;;1574341;74;1171;-69
2024/02/03 04:33:46;;;;;;;;;;;17.40;43.80;;;;;;1570315;74;1010;-70
2024/02/03 04:35:48;;;;;;;;;;;17.40;43.80;;;;;;1567736;74;775;-70
2024/02/03 04:37:50;;;;;;;;;;;17.40;43.80;;;;;;1572074;74;682;-71
2024/02/03 04:39:52;;;;;;;;;;;17.40;43.90;;;;;;1574081;74;678;-70
2024/02/03 04:41:54;;;;;;;;;;;17.40;43.70;;;;;;1567025;74;1155;-71
2024/02/03 04:43:55;;;;;;;;;;;17.40;43.80;;;;;;1567806;74;663;-70
2024/02/03 04:45:57;;;;;;;;;;;17.40;43.80;;;;;;1573371;74;694;-71
2024/02/03 04:47:59;;;;;;;;;;;17.50;43.90;;;;;;1561729;74;661;-71
2024/02/03 04:50:04;;;;;;;;;;;17.40;43.80;;;;;;1575235;74;1926;-71
2024/02/03 04:52:05;;;;;;;;;;;17.40;43.80;;;;;;1575505;74;1161;-70
2024/02/03 04:54:07;;;;;;;;;;;17.40;43.80;;;;;;1574349;74;766;-71
2024/02/03 04:56:09;;;;;;;;;;;17.40;43.80;;;;;;1566443;74;751;-71
2024/02/03 04:58:10;;;;;;;;;;;17.40;43.80;;;;;;1572499;74;738;-71
2024/02/03 05:00:13;;;;;;;;;;;17.40;43.80;;;;;;1569279;74;741;-71
2024/02/03 05:02:15;;;;;;;;;;;17.40;43.80;;;;;;1568111;74;1103;-70
2024/02/03 05:04:16;;;;;;;;;;;17.40;43.80;;;;;;1575908;74;752;-71
2024/02/03 05:06:20;;;;;;;;;;;17.40;43.70;;;;;;1571819;74;665;-71
2024/02/03 05:08:22;;;;;;;;;;;17.40;43.70;;;;;;1569668;74;1524;-71
2024/02/03 05:10:24;;;;;;;;;;;17.40;43.70;;;;;;1567975;74;1933;-71
2024/02/03 05:12:25;;;;;;;;;;;17.40;43.70;;;;;;1568686;74;1151;-69
2024/02/03 05:14:27;;;;;;;;;;;17.40;43.70;;;;;;1572566;74;744;-69
2024/02/03 05:16:29;;;;;;;;;;;17.40;43.70;;;;;;1575505;74;772;-69
2024/02/03 05:18:31;;;;;;;;;;;17.40;43.70;;;;;;1568850;74;649;-70
2024/02/03 05:20:33;;;;;;;;;;;17.40;43.60;;;;;;1575384;74;743;-69
2024/02/03 05:22:35;;;;;;;;;;;17.40;43.70;;;;;;1569072;74;1160;-70
2024/02/03 05:24:37;;;;;;;;;;;17.40;43.80;;;;;;1575988;74;709;-69
2024/02/03 05:26:39;;;;;;;;;;;17.40;43.60;;;;;;1571885;74;703;-70
2024/02/03 05:28:41;;;;;;;;;;;17.40;43.70;;;;;;1568631;74;584;-69
2024/02/03 05:30:43;;;;;;;;;;;17.40;43.60;;;;;;1572348;74;1942;-68
2024/02/03 05:32:45;;;;;;;;;;;17.40;43.60;;;;;;1570731;74;1135;-70
2024/02/03 05:34:46;;;;;;;;;;;17.40;43.70;;;;;;1574054;74;715;-68
2024/02/03 05:36:48;;;;;;;;;;;17.40;43.70;;;;;;1571921;74;723;-68
2024/02/03 05:38:50;;;;;;;;;;;17.40;43.70;;;;;;1570832;74;694;-69
2024/02/03 05:40:52;;;;;;;;;;;17.40;43.70;;;;;;1570690;74;718;-70
2024/02/03 05:42:54;;;;;;;;;;;17.40;43.60;;;;;;1568794;74;1163;-70
2024/02/03 05:44:57;;;;;;;;;;;17.40;43.60;;;;;;1573116;74;753;-69
2024/02/03 05:47:00;;;;;;;;;;;17.50;43.80;;;;;;1569638;74;910;-70
2024/02/03 05:49:02;;;;;;;;;;;17.40;43.70;;;;;;1567571;74;716;-70
2024/02/03 05:51:04;;;;;;;;;;;17.40;43.70;;;;;;1572255;74;1934;-70
2024/02/03 05:53:06;;;;;;;;;;;17.40;43.60;;;;;;1572073;74;1109;-70
2024/02/03 05:55:09;;;;;;;;;;;17.40;43.60;;;;;;1574880;74;704;-71
2024/02/03 05:57:12;;;;;;;;;;;17.40;43.70;;;;;;1563767;74;725;-68
2024/02/03 05:59:14;;;;;;;;;;;17.40;43.70;;;;;;1569815;74;603;-70
2024/02/03 06:01:20;;;;;;;;;;;17.40;43.70;;;;;;1567369;74;677;-69
2024/02/03 06:03:24;;;;;;;;;;;17.50;43.70;;;;;;1577180;74;1145;-69
2024/02/03 06:05:26;;;;;;;;;;;17.40;43.60;;;;;;1579853;74;708;-69
2024/02/03 06:07:28;;;;;;;;;;;17.40;43.70;;;;;;1569255;74;1548;-70
2024/02/03 06:09:29;;;;;;;;;;;17.40;43.60;;;;;;1572029;74;1919;-70
2024/02/03 06:11:31;;;;;;;;;;;17.50;43.70;;;;;;1568101;74;803;-70
2024/02/03 06:13:33;;;;;;;;;;;17.40;43.60;;;;;;1571940;74;1107;-70
2024/02/03 06:15:35;;;;;;;;;;;17.40;43.60;;;;;;1570190;74;754;-70
2024/02/03 06:17:37;;;;;;;;;;;17.40;43.60;;;;;;1571825;74;751;-68
2024/02/03 06:19:39;;;;;;;;;;;17.40;43.70;;;;;;1567456;74;686;-70
2024/02/03 06:21:41;;;;;;;;;;;17.40;43.60;;;;;;1572886;74;816;-70
2024/02/03 06:23:42;;;;;;;;;;;17.40;43.60;;;;;;1567648;74;1116;-70
2024/02/03 06:25:44;;;;;;;;;;;17.40;43.60;;;;;;1574112;74;728;-70
2024/02/03 06:27:46;;;;;;;;;;;17.50;43.70;;;;;;1563042;74;680;-70
2024/02/03 06:29:48;;;;;;;;;;;17.40;43.60;;;;;;1570654;74;1934;-68
2024/02/03 06:31:50;;;;;;;;;;;17.40;43.60;;;;;;1576961;74;1088;-70
2024/02/03 06:33:52;;;;;;;;;;;17.40;43.60;;;;;;1566697;74;1137;-70
2024/02/03 06:35:54;;;;;;;;;;;17.40;43.60;;;;;;1573657;74;608;-68
2024/02/03 06:37:56;;;;;;;;;;;17.50;43.70;;;;;;1575889;74;602;-71
2024/02/03 06:39:58;;;;;;;;;;;17.40;43.60;;;;;;1571793;74;695;-70
2024/02/03 06:41:59;;;;;;;;;;;17.40;43.60;;;;;;1564158;74;1171;-70
2024/02/03 06:44:01;;;;;;;;;;;17.40;43.60;;;;;;1564266;74;701;-69
2024/02/03 06:46:03;;;;;;;;;;;17.40;43.70;;;;;;1578911;74;763;-69
2024/02/03 06:48:05;;;;;;;;;;;17.40;43.60;;;;;;1572535;74;681;-69
2024/02/03 06:50:08;;;;;;;;;;;17.40;43.60;;;;;;1574117;74;1929;-71
2024/02/03 06:52:10;;;;;;;;;;;17.40;43.60;;;;;;1570932;74;1117;-71
2024/02/03 06:54:11;;;;;;;;;;;17.40;43.70;;;;;;1572554;74;818;-70
2024/02/03 06:56:13;;;;;;;;;;;17.40;43.60;;;;;;1559134;74;707;-70
2024/02/03 06:58:15;;;;;;;;;;;17.50;43.80;;;;;;1571755;74;751;-69
2024/02/03 07:00:17;;;;;;;;;;;17.40;43.70;;;;;;1571293;74;787;-70
2024/02/03 07:02:19;;;;;;;;;;;17.40;43.70;;;;;;1569236;74;1117;-71
2024/02/03 07:04:21;;;;;;;;;;;17.50;43.80;;;;;;1570865;74;668;-70
2024/02/03 07:06:23;;;;;;;;;;;17.40;43.60;;;;;;1574813;74;852;-71
2024/02/03 07:08:25;;;;;;;;;;;17.40;43.70;;;;;;1563334;74;1482;-69
2024/02/03 07:10:27;;;;;;;;;;;17.40;43.60;;;;;;1573215;74;1934;-70
2024/02/03 07:12:29;;;;;;;;;;;17.40;43.60;;;;;;1564080;74;1116;-69
2024/02/03 07:14:31;;;;;;;;;;;17.40;43.60;;;;;;1577333;74;673;-70
2024/02/03 07:16:33;;;;;;;;;;;17.40;43.60;;;;;;1567513;74;720;-70
2024/02/03 07:18:34;;;;;;;;;;;17.50;43.80;;;;;;1568634;74;731;-70
2024/02/03 07:20:36;;;;;;;;;;;17.40;43.60;;;;;;1568138;74;652;-70
2024/02/03 07:22:38;;;;;;;;;;;17.40;43.60;;;;;;1572604;74;1123;-71
2024/02/03 07:24:40;;;;;;;;;;;17.40;43.50;;;;;;1568379;74;670;-68
2024/02/03 07:26:42;;;;;;;;;;;17.40;43.60;;;;;;1571009;74;719;-68
2024/02/03 07:28:44;;;;;;;;;;;17.50;43.70;;;;;;1560261;74;558;-69
2024/02/03 07:30:46;;;;;;;;;;;17.40;43.60;;;;;;1568537;74;1938;-70
2024/02/03 07:32:48;;;;;;;;;;;17.40;43.60;;;;;;1570127;74;1160;-71
2024/02/03 07:34:49;;;;;;;;;;;17.40;43.60;;;;;;1570068;74;791;-70
2024/02/03 07:36:51;;;;;;;;;;;17.40;43.60;;;;;;1570407;74;756;-70
2024/02/03 07:38:53;;;;;;;;;;;17.40;43.60;;;;;;1567999;74;896;-69
2024/02/03 07:40:55;;;;;;;;;;;17.40;43.60;;;;;;1564624;74;709;-70
2024/02/03 07:42:57;;;;;;;;;;;17.40;43.60;;;;;;1568483;74;1198;-69
2024/02/03 07:44:59;;;;;;;;;;;17.40;43.60;;;;;;1573338;74;905;-71
2024/02/03 07:47:01;;;;;;;;;;;17.40;43.60;;;;;;1571773;74;681;-70
2024/02/03 07:49:04;;;;;;;;;;;17.40;43.60;;;;;;1572225;74;723;-69
2024/02/03 07:51:09;;;;;;;;;;;17.40;43.70;;;;;;1572244;74;1910;-70
2024/02/03 07:53:11;;;;;;;;;;;17.40;43.60;;;;;;1571972;74;1150;-70
2024/02/03 07:55:13;;;;;;;;;;;17.40;43.60;;;;;;1575040;74;814;-70
2024/02/03 07:57:15;;;;;;;;;;;17.40;43.60;;;;;;1569413;74;611;-68
2024/02/03 07:59:17;;;;;;;;;;;17.40;43.60;;;;;;1575801;74;705;-69
2024/02/03 08:01:21;;;;;;;;;;;17.40;43.60;;;;;;1564680;74;721;-70
2024/02/03 08:03:23;;;;;;;;;;;17.50;43.70;;;;;;1571288;74;1138;-69
2024/02/03 08:05:25;;;;;;;;;;;17.50;43.70;;;;;;1572383;74;720;-70
2024/02/03 08:07:27;;;;;;;;;;;17.40;43.60;;;;;;1572211;74;1341;-70
2024/02/03 08:09:29;;;;;;;;;;;17.40;43.60;;;;;;1565173;74;705;-69
2024/02/03 08:11:31;;;;;;;;;;;17.40;43.60;;;;;;1571052;74;1928;-71
2024/02/03 08:13:33;;;;;;;;;;;17.40;43.60;;;;;;1567217;74;1129;-69
2024/02/03 08:15:35;;;;;;;;;;;17.40;43.60;;;;;;1567796;74;707;-70
2024/02/03 08:17:37;;;;;;;;;;;17.50;43.60;;;;;;1571685;74;611;-70
2024/02/03 08:19:42;;;;;;;;;;;17.40;43.60;;;;;;1567415;74;749;-71
2024/02/03 08:21:44;;;;;;;;;;;17.40;43.60;;;;;;1569234;74;1148;-69
2024/02/03 08:23:46;;;;;;;;;;;17.40;43.60;;;;;;1567211;74;622;-69
2024/02/03 08:25:48;;;;;;;;;;;17.40;43.60;;;;;;1570791;74;615;-70
2024/02/03 08:27:50;;;;;;;;;;;17.40;43.60;;;;;;1562975;74;770;-71
2024/02/03 08:29:52;;;;;;;;;;;17.40;43.60;;;;;;1568796;74;668;-70
2024/02/03 08:31:54;;;;;;;;;;;17.50;43.70;;;;;;1565149;74;1934;-70
2024/02/03 08:33:57;;;;;;;;;;;17.40;43.60;;;;;;1568536;74;697;-70
2024/02/03 08:35:59;;;;;;;;;;;17.40;43.60;;;;;;1568059;74;822;-69
2024/02/03 08:38:01;;;;;;;;;;;17.40;43.60;;;;;;1568719;74;688;-70
2024/02/03 08:40:04;;;;;;;;;;;17.40;43.50;;;;;;1568302;74;684;-70
2024/02/03 08:42:06;;;;;;;;;;;17.40;43.50;;;;;;1564047;74;1140;-70
2024/02/03 08:44:07;;;;;;;;;;;17.40;43.60;;;;;;1567140;74;798;-70
2024/02/03 08:46:09;;;;;;;;;;;17.40;43.50;;;;;;1577589;74;706;-70
2024/02/03 08:48:11;;;;;;;;;;;17.40;43.50;;;;;;1573669;74;604;-70
2024/02/03 08:50:13;;;;;;;;;;;17.50;43.60;;;;;;1574819;74;748;-69
2024/02/03 08:52:15;;;;;;;;;;;17.40;43.60;;;;;;1567361;74;1942;-69
2024/02/03 08:54:17;;;;;;;;;;;17.40;43.50;;;;;;1571025;74;776;-70
2024/02/03 08:56:20;;;;;;;;;;;17.40;43.50;;;;;;1568041;74;792;-69
2024/02/03 08:58:22;;;;;;;;;;;17.50;43.60;;;;;;1570115;74;720;-69
2024/02/03 09:00:24;;;;;;;;;;;17.50;43.60;;;;;;1571044;74;806;-70
2024/02/03 09:02:25;;;;;;;;;;;17.50;43.70;;;;;;1570926;74;1053;-71
2024/02/03 09:04:27;;;;;;;;;;;17.40;43.40;;;;;;1572131;74;769;-70
2024/02/03 09:06:29;;;;;;;;;;;17.40;43.50;;;;;;1571363;74;778;-70
2024/02/03 09:08:31;;;;;;;;;;;17.40;43.50;;;;;;1540079;76;1544;-70
2024/02/03 09:10:33;;;;;;;;;;;17.40;43.50;;;;;;1563401;74;1936;-71
2024/02/03 09:12:35;;;;;;;;;;;17.40;43.40;;;;;;1570083;74;1170;-70
2024/02/03 09:14:37;;;;;;;;;;;17.40;43.40;;;;;;1583826;74;757;-69
2024/02/03 09:16:39;;;;;;;;;;;17.40;43.50;;;;;;1567930;74;760;-69
2024/02/03 09:18:41;;;;;;;;;;;17.50;43.60;;;;;;1571961;74;934;-69
2024/02/03 09:20:43;;;;;;;;;;;17.40;43.40;;;;;;1573140;74;736;-69
2024/02/03 09:22:45;;;;;;;;;;;17.50;43.60;;;;;;1566563;74;1160;-69
2024/02/03 09:24:47;;;;;;;;;;;17.50;43.60;;;;;;1571273;74;742;-69
2024/02/03 09:26:49;;;;;;;;;;;17.50;43.60;;;;;;1564804;74;725;-68
2024/02/03 09:28:52;;;;;;;;;;;17.40;43.50;;;;;;1574640;74;701;-70
2024/02/03 09:30:54;;;;;;;;;;;17.50;43.60;;;;;;1572681;74;1906;-68
2024/02/03 09:32:56;;;;;;;;;;;17.50;43.60;;;;;;1563070;74;1192;-69
2024/02/03 09:34:58;;;;;;;;;;;17.40;43.40;;;;;;1568953;74;603;-70
2024/02/03 09:36:59;;;;;;;;;;;17.40;43.30;;;;;;1575893;74;734;-70
2024/02/03 09:39:02;;;;;;;;;;;17.40;43.50;;;;;;1568524;74;715;-68
2024/02/03 09:41:04;;;;;;;;;;;17.40;43.40;;;;;;1564069;74;661;-70
2024/02/03 09:43:06;;;;;;;;;;;17.40;43.50;;;;;;1567400;74;1195;-70
2024/02/03 09:45:08;;;;;;;;;;;17.50;43.60;;;;;;1575276;74;744;-70
2024/02/03 09:47:14;;;;;;;;;;;17.40;43.50;;;;;;1569763;74;728;-70
2024/02/03 09:49:16;;;;;;;;;;;17.50;43.60;;;;;;1568931;74;693;-69
2024/02/03 09:51:18;;;;;;;;;;;17.40;43.40;;;;;;1567564;74;1930;-70
2024/02/03 09:53:19;;;;;;;;;;;17.40;43.50;;;;;;1571454;74;1124;-70
2024/02/03 09:55:21;;;;;;;;;;;17.40;43.40;;;;;;1570858;74;706;-71
2024/02/03 09:57:23;;;;;;;;;;;17.40;43.40;;;;;;1563871;74;828;-70
2024/02/03 09:59:25;;;;;;;;;;;17.50;43.50;;;;;;1572455;74;801;-70
2024/02/03 10:01:27;;;;;;;;;;;17.40;43.40;;;;;;1577391;74;773;-71
2024/02/03 10:03:29;;;;;;;;;;;17.50;43.60;;;;;;1574419;74;1122;-71
2024/02/03 10:05:31;;;;;;;;;;;17.50;43.60;;;;;;1575693;74;682;-70
2024/02/03 10:07:33;;;;;;;;;;;17.40;43.40;;;;;;1575828;74;1459;-69
2024/02/03 10:09:35;;;;;;;;;;;17.50;43.60;;;;;;1568037;74;833;-70
2024/02/03 10:11:38;;;;;;;;;;;17.40;43.50;;;;;;1566724;74;1905;-71
2024/02/03 10:13:40;;;;;;;;;;;17.40;43.60;;;;;;1570150;74;1108;-70
2024/02/03 10:15:42;;;;;;;;;;;17.50;43.50;;;;;;1579854;74;750;-70
2024/02/03 10:17:44;;;;;;;;;;;17.40;43.40;;;;;;1573056;74;696;-68
2024/02/03 10:19:46;;;;;;;;;;;17.50;43.60;;;;;;1574365;74;600;-70
2024/02/03 10:21:48;;;;;;;;;;;17.40;43.50;;;;;;1571919;74;1131;-70
2024/02/03 10:23:54;;;;;;;;;;;17.50;43.60;;;;;;1573537;74;616;-70
2024/02/03 10:25:58;;;;;;;;;;;17.50;43.60;;;;;;1568178;74;965;-70
2024/02/03 10:28:00;;;;;;;;;;;17.50;43.60;;;;;;1564413;74;1120;-70
2024/02/03 10:30:02;;;;;;;;;;;17.50;43.50;;;;;;1568964;74;618;-68
2024/02/03 10:32:04;;;;;;;;;;;17.40;43.40;;;;;;1571153;74;1938;-70
2024/02/03 10:34:06;;;;;;;;;;;17.50;43.60;;;;;;1573298;74;760;-70
2024/02/03 10:36:08;;;;;;;;;;;17.50;43.50;;;;;;1576983;74;756;-68
2024/02/03 10:38:10;;;;;;;;;;;17.40;43.50;;;;;;1571141;74;744;-70
2024/02/03 10:40:12;;;;;;;;;;;17.40;43.40;;;;;;1572279;74;637;-68
2024/02/03 10:42:16;;;;;;;;;;;17.50;43.50;;;;;;1565702;74;1135;-70
2024/02/03 10:44:21;;;;;;;;;;;17.50;43.60;;;;;;1565021;74;2016;-70
2024/02/03 10:46:22;;;;;;;;;;;17.40;43.50;;;;;;1575092;74;1081;-70
2024/02/03 10:48:25;;;;;;;;;;;17.50;43.60;;;;;;1573225;74;683;-70
2024/02/03 10:50:32;;;;;;;;;;;17.50;43.60;;;;;;1567297;74;689;-69
2024/02/03 10:52:33;;;;;;;;;;;17.50;43.60;;;;;;1556352;74;1957;-70
2024/02/03 10:54:35;;;;;;;;;;;17.50;43.60;;;;;;1572416;74;806;-71
2024/02/03 10:56:37;;;;;;;;;;;17.50;43.70;;;;;;1575236;74;1152;-69
2024/02/03 10:58:42;;;;;;;;;;;17.40;43.40;;;;;;1573034;74;725;-70
2024/02/03 11:00:44;;;;;;;;;;;17.50;43.50;;;;;;1569316;74;725;-70
2024/02/03 11:02:52;;;;;;;;;;;17.50;43.60;;;;;;1574805;74;1106;-70
2024/02/03 11:04:56;;;;;;;;;;;17.50;43.60;;;;;;1569413;74;743;-69
2024/02/03 11:06:58;;;;;;;;;;;17.50;43.60;;;;;;1570599;74;1473;-70
2024/02/03 11:09:13;;;;;;;;;;;17.50;43.60;;;;;;1567167;74;744;-70
2024/02/03 11:11:16;;;;;;;;;;;17.40;43.50;;;;;;1567187;74;1906;-71
2024/02/03 11:13:21;;;;;;;;;;;17.50;43.60;;;;;;1565642;74;1630;-68
2024/02/03 11:15:23;;;;;;;;;;;17.50;43.60;;;;;;1579225;74;721;-70
2024/02/03 11:17:27;;;;;;;;;;;17.50;43.60;;;;;;1572081;74;719;-70
2024/02/03 11:19:29;;;;;;;;;;;17.40;43.40;;;;;;1568415;74;1120;-70
2024/02/03 11:21:31;;;;;;;;;;;17.40;43.40;;;;;;1568769;74;744;-70
2024/02/03 11:23:33;;;;;;;;;;;17.50;43.60;;;;;;1572148;74;1139;-70
2024/02/03 11:25:38;;;;;;;;;;;17.50;43.60;;;;;;1568600;74;791;-69
2024/02/03 11:27:39;;;;;;;;;;;17.40;43.50;;;;;;1568944;74;1369;-70
2024/02/03 11:29:41;;;;;;;;;;;17.50;43.60;;;;;;1562830;74;704;-70
2024/02/03 11:31:43;;;;;;;;;;;17.50;43.60;;;;;;1571915;74;1921;-70
2024/02/03 11:33:49;;;;;;;;;;;17.50;43.60;;;;;;1568691;74;1166;-68
2024/02/03 11:35:50;;;;;;;;;;;17.50;43.70;;;;;;1568451;74;1188;-68
2024/02/03 11:37:52;;;;;;;;;;;17.50;43.60;;;;;;1567551;74;1083;-70
2024/02/03 11:39:54;;;;;;;;;;;17.50;43.60;;;;;;1573426;74;569;-70
2024/02/03 11:41:56;;;;;;;;;;;17.50;43.60;;;;;;1572340;74;1160;-69
2024/02/03 11:43:58;;;;;;;;;;;17.50;43.60;;;;;;1570986;74;714;-68
2024/02/03 11:46:00;;;;;;;;;;;17.50;43.60;;;;;;1573859;74;656;-68
2024/02/03 11:48:05;;;;;;;;;;;17.50;43.60;;;;;;1566165;74;725;-70
2024/02/03 11:50:05;;;;;;;;;;;17.50;43.60;;;;;;1569126;74;1171;-69
2024/02/03 11:52:07;;;;;;;;;;;17.50;43.60;;;;;;1574573;74;1910;-69
2024/02/03 11:54:09;;;;;;;;;;;17.40;43.50;;;;;;1570087;74;606;-69
2024/02/03 11:56:11;;;;;;;;;;;17.50;43.60;;;;;;1574211;74;633;-69
2024/02/03 11:58:13;;;;;;;;;;;17.50;43.60;;;;;;1571858;74;814;-69
2024/02/03 12:00:15;;;;;;;;;;;17.50;43.60;;;;;;1568005;74;672;-69
2024/02/03 12:02:17;;;;;;;;;;;17.50;43.60;;;;;;1536400;75;1140;-69
2024/02/03 12:04:19;;;;;;;;;;;17.40;43.50;;;;;;1567253;74;781;-68
2024/02/03 12:06:21;;;;;;;;;;;17.50;43.60;;;;;;1574402;74;760;-69
2024/02/03 12:08:23;;;;;;;;;;;17.50;43.60;;;;;;1563336;74;1583;-68